createdAt,value
2023-04-29T00:00:28.150Z,100971.91
2023-04-29T00:02:55.001Z,100968.16
2023-04-29T00:05:22.072Z,100957.72
2023-04-29T00:07:48.808Z,100958.94
2023-04-29T00:10:15.647Z,100963.50
2023-04-29T00:12:42.606Z,100963.66
2023-04-29T00:15:09.836Z,100958.28
2023-04-29T00:17:36.955Z,100959.38
2023-04-29T00:20:04.487Z,100955.84
2023-04-29T00:22:31.101Z,100951.50
2023-04-29T00:24:58.842Z,100962.28
2023-04-29T00:27:27.767Z,100948.16
2023-04-29T00:29:55.900Z,100946.66
2023-04-29T00:32:23.030Z,100961.44
2023-04-29T00:34:49.812Z,100959.09
2023-04-29T00:37:16.599Z,100960.13
2023-04-29T00:39:43.296Z,100948.16
2023-04-29T00:42:11.738Z,100946.50
2023-04-29T00:44:38.411Z,100952.72
2023-04-29T00:47:05.148Z,100953.47
2023-04-29T00:49:31.772Z,100941.56
2023-04-29T00:51:59.438Z,100947.22
2023-04-29T00:54:28.543Z,100954.94
2023-04-29T00:56:56.382Z,100956.16
2023-04-29T00:59:24.134Z,100950.47
2023-04-29T01:01:51.062Z,100951.75
2023-04-29T01:04:18.549Z,100953.47
2023-04-29T01:07:01.508Z,100950.75
2023-04-29T01:10:08.093Z,100961.34
2023-04-29T01:12:48.260Z,100952.25
2023-04-29T01:15:23.979Z,100952.44
2023-04-29T01:17:56.052Z,100953.06
2023-04-29T01:20:23.656Z,100944.16
2023-04-29T01:22:50.383Z,100957.63
2023-04-29T01:25:17.717Z,100948.91
2023-04-29T01:28:12.867Z,100950.56
2023-04-29T01:30:52.723Z,100954.28
2023-04-29T01:33:19.322Z,100957.16
2023-04-29T01:36:17.207Z,100952.25
2023-04-29T01:39:02.861Z,100952.63
2023-04-29T01:42:11.518Z,100946.38
2023-04-29T01:44:39.296Z,100939.16
2023-04-29T01:47:06.770Z,100934.66
2023-04-29T01:49:37.331Z,100935.97
2023-04-29T01:52:04.216Z,100945.63
2023-04-29T01:54:31.218Z,100945.34
2023-04-29T01:56:58.783Z,100948.59
2023-04-29T01:59:25.629Z,100948.22
2023-04-29T02:01:52.478Z,100958.53
2023-04-29T02:04:19.166Z,100952.56
2023-04-29T02:06:45.910Z,100958.31
2023-04-29T02:09:12.519Z,100952.75
2023-04-29T02:11:39.230Z,100960.50
2023-04-29T02:14:05.893Z,100955.56
2023-04-29T02:16:32.480Z,100958.25
2023-04-29T02:18:59.107Z,100962.25
2023-04-29T02:21:27.773Z,100969.47
2023-04-29T02:23:54.642Z,100970.38
2023-04-29T02:26:21.481Z,100979.09
2023-04-29T02:28:48.204Z,100975.13
2023-04-29T02:31:14.850Z,100977.81
2023-04-29T02:33:47.496Z,100977.53
2023-04-29T02:36:14.218Z,100980.75
2023-04-29T02:38:40.867Z,100963.09
2023-04-29T02:41:07.552Z,100973.16
2023-04-29T02:43:34.203Z,100976.19
2023-04-29T02:46:01.021Z,100987.78
2023-04-29T02:48:28.041Z,100966.03
2023-04-29T02:50:54.620Z,100979.38
2023-04-29T02:53:21.915Z,100983.19
2023-04-29T02:55:48.609Z,100964.72
2023-04-29T02:58:15.118Z,100980.97
2023-04-29T03:00:42.234Z,100978.47
2023-04-29T03:03:09.972Z,100981.38
2023-04-29T03:05:36.932Z,100982.88
2023-04-29T03:08:04.772Z,100982.28
2023-04-29T03:10:31.572Z,100958.13
2023-04-29T03:12:58.124Z,100982.91
2023-04-29T03:15:24.795Z,100976.06
2023-04-29T03:17:51.372Z,100979.50
2023-04-29T03:20:18.169Z,100978.75
2023-04-29T03:22:44.822Z,100971.06
2023-04-29T03:25:13.403Z,100970.78
2023-04-29T03:27:40.133Z,100976.16
2023-04-29T03:30:07.873Z,100982.38
2023-04-29T03:32:34.516Z,100979.50
2023-04-29T03:35:01.248Z,100979.56
2023-04-29T03:37:27.767Z,100983.72
2023-04-29T03:39:54.593Z,100993.06
2023-04-29T03:42:21.370Z,100997.63
2023-04-29T03:44:47.987Z,100999.28
2023-04-29T03:47:14.648Z,101001.97
2023-04-29T03:49:41.386Z,101004.72
2023-04-29T03:52:08.096Z,101001.19
2023-04-29T03:54:34.707Z,101018.94
2023-04-29T03:57:02.359Z,101016.06
2023-04-29T03:59:29.026Z,101013.22
2023-04-29T04:01:56.048Z,101022.25
2023-04-29T04:04:23.061Z,101031.75
2023-04-29T04:06:52.891Z,101042.63
2023-04-29T04:09:19.502Z,101030.47
2023-04-29T04:11:46.720Z,101037.16
2023-04-29T04:14:14.059Z,101045.91
2023-04-29T04:16:40.889Z,101043.84
2023-04-29T04:19:07.633Z,101039.78
2023-04-29T04:21:35.440Z,101043.81
2023-04-29T04:24:02.049Z,101042.81
2023-04-29T04:26:28.805Z,101049.97
2023-04-29T04:28:55.737Z,101048.59
2023-04-29T04:31:22.421Z,101053.59
2023-04-29T04:33:49.088Z,101057.78
2023-04-29T04:36:15.705Z,101063.44
2023-04-29T04:38:42.506Z,101068.13
2023-04-29T04:41:09.168Z,101060.28
2023-04-29T04:43:35.858Z,101067.00
2023-04-29T04:46:11.015Z,101063.94
2023-04-29T04:48:37.750Z,101070.47
2023-04-29T04:51:11.452Z,101068.88
2023-04-29T04:53:39.062Z,101078.34
2023-04-29T04:56:06.887Z,101067.38
2023-04-29T04:58:33.667Z,101070.38
2023-04-29T05:01:01.392Z,101065.22
2023-04-29T05:03:28.575Z,101068.66
2023-04-29T05:05:58.953Z,101071.06
2023-04-29T05:08:27.141Z,101078.84
2023-04-29T05:10:54.406Z,101074.47
2023-04-29T05:13:21.321Z,101069.00
2023-04-29T05:15:48.034Z,101078.59
2023-04-29T05:18:14.685Z,101084.00
2023-04-29T05:20:41.408Z,101092.19
2023-04-29T05:23:08.892Z,101091.34
2023-04-29T05:25:35.876Z,101091.34
2023-04-29T05:28:03.454Z,101097.16
2023-04-29T05:30:30.168Z,101101.63
2023-04-29T05:32:59.111Z,101103.91
2023-04-29T05:35:26.071Z,101112.19
2023-04-29T05:37:52.838Z,101101.56
2023-04-29T05:40:19.515Z,101111.28
2023-04-29T05:42:47.082Z,101114.56
2023-04-29T05:45:13.837Z,101128.75
2023-04-29T05:47:40.792Z,101122.16
2023-04-29T05:50:07.942Z,101134.00
2023-04-29T05:52:34.619Z,101131.66
2023-04-29T05:55:01.218Z,101148.91
2023-04-29T05:57:28.068Z,101133.50
2023-04-29T05:59:59.985Z,101146.84
2023-04-29T06:02:28.284Z,101133.03
2023-04-29T06:04:56.292Z,101149.22
2023-04-29T06:07:24.101Z,101154.44
2023-04-29T06:09:51.152Z,101162.03
2023-04-29T06:12:17.928Z,101167.28
2023-04-29T06:14:44.611Z,101171.41
2023-04-29T06:17:12.510Z,101167.44
2023-04-29T06:19:39.171Z,101170.44
2023-04-29T06:22:06.007Z,101168.66
2023-04-29T06:24:32.668Z,101164.81
2023-04-29T06:26:59.264Z,101177.41
2023-04-29T06:29:26.066Z,101167.28
2023-04-29T06:31:53.302Z,101166.78
2023-04-29T06:34:19.999Z,101172.28
2023-04-29T06:36:46.969Z,101171.88
2023-04-29T06:39:13.789Z,101170.56
2023-04-29T06:41:40.992Z,101175.50
2023-04-29T06:44:07.571Z,101177.69
2023-04-29T06:46:34.575Z,101178.34
2023-04-29T06:49:01.314Z,101188.53
2023-04-29T06:51:29.059Z,101195.75
2023-04-29T06:53:56.956Z,101191.31
2023-04-29T06:56:24.043Z,101194.75
2023-04-29T06:58:50.748Z,101201.47
2023-04-29T07:01:17.553Z,101195.53
2023-04-29T07:03:44.736Z,101194.88
2023-04-29T07:06:11.437Z,101198.31
2023-04-29T07:08:38.229Z,101193.41
2023-04-29T07:11:05.298Z,101203.41
2023-04-29T07:13:32.070Z,101215.34
2023-04-29T07:15:58.764Z,101217.34
2023-04-29T07:18:26.391Z,101221.81
2023-04-29T07:20:53.190Z,101229.09
2023-04-29T07:23:19.758Z,101232.94
2023-04-29T07:25:47.733Z,101228.66
2023-04-29T07:28:14.450Z,101231.44
2023-04-29T07:30:41.868Z,101233.97
2023-04-29T07:33:08.833Z,101227.97
2023-04-29T07:35:35.621Z,101223.16
2023-04-29T07:38:02.305Z,101223.94
2023-04-29T07:40:28.912Z,101236.44
2023-04-29T07:42:55.795Z,101243.84
2023-04-29T07:45:22.527Z,101238.91
2023-04-29T07:47:49.326Z,101240.00
2023-04-29T07:50:16.419Z,101243.72
2023-04-29T07:52:43.057Z,101247.59
2023-04-29T07:55:09.869Z,101253.03
2023-04-29T07:57:36.880Z,101254.72
2023-04-29T08:00:08.475Z,101254.59
2023-04-29T08:02:35.208Z,101264.25
2023-04-29T08:05:03.250Z,101265.44
2023-04-29T08:07:30.446Z,101271.25
2023-04-29T08:09:57.169Z,101274.94
2023-04-29T08:12:24.017Z,101274.94
2023-04-29T08:14:50.996Z,101277.69
2023-04-29T08:17:17.796Z,101285.66
2023-04-29T08:19:44.668Z,101288.50
2023-04-29T08:22:12.282Z,101297.78
2023-04-29T08:24:39.253Z,101301.59
2023-04-29T08:27:06.010Z,101295.16
2023-04-29T08:29:33.121Z,101305.16
2023-04-29T08:32:00.102Z,101313.22
2023-04-29T08:34:27.803Z,101319.91
2023-04-29T08:36:54.494Z,101309.78
2023-04-29T08:41:51.428Z,101327.16
2023-04-29T08:44:18.533Z,101327.63
2023-04-29T08:46:46.739Z,101330.59
2023-04-29T08:49:13.952Z,101330.97
2023-04-29T08:51:40.788Z,101325.81
2023-04-29T08:54:08.048Z,101337.13
2023-04-29T08:56:34.908Z,101331.91
2023-04-29T08:59:02.517Z,101343.47
2023-04-29T09:01:30.118Z,101323.00
2023-04-29T09:04:11.791Z,101344.75
2023-04-29T09:06:38.567Z,101343.19
2023-04-29T09:09:05.595Z,101350.94
2023-04-29T09:11:32.984Z,101349.50
2023-04-29T09:14:04.693Z,101355.47
2023-04-29T09:16:31.598Z,101365.59
2023-04-29T09:18:58.685Z,101365.44
2023-04-29T09:21:32.363Z,101362.84
2023-04-29T09:24:01.364Z,101375.78
2023-04-29T09:26:40.942Z,101370.13
2023-04-29T09:29:16.037Z,101373.91
2023-04-29T09:31:42.838Z,101378.31
2023-04-29T09:34:11.704Z,101378.19
2023-04-29T09:36:49.213Z,101382.72
2023-04-29T09:39:23.437Z,101376.13
2023-04-29T09:41:52.856Z,101383.44
2023-04-29T09:44:30.002Z,101380.56
2023-04-29T09:47:06.437Z,101378.19
2023-04-29T09:49:40.733Z,101389.72
2023-04-29T09:52:11.800Z,101381.41
2023-04-29T09:54:40.825Z,101391.75
2023-04-29T09:57:09.119Z,101400.56
2023-04-29T09:59:38.359Z,101389.50
2023-04-29T10:02:15.569Z,101397.69
2023-04-29T10:04:45.583Z,101403.16
2023-04-29T10:07:18.585Z,101401.19
2023-04-29T10:09:49.479Z,101407.13
2023-04-29T10:12:18.963Z,101406.41
2023-04-29T10:15:10.755Z,101399.97
2023-04-29T10:17:49.637Z,101408.91
2023-04-29T10:20:23.055Z,101419.72
2023-04-29T10:22:51.380Z,101413.94
2023-04-29T10:25:20.611Z,101412.34
2023-04-29T10:27:49.010Z,101397.91
2023-04-29T10:30:17.802Z,101405.91
2023-04-29T10:32:51.158Z,101403.53
2023-04-29T10:35:22.257Z,101399.97
2023-04-29T10:37:50.323Z,101402.94
2023-04-29T10:40:18.468Z,101403.78
2023-04-29T10:42:53.028Z,101404.75
2023-04-29T10:45:27.559Z,101407.50
2023-04-29T10:48:15.279Z,101402.72
2023-04-29T10:51:01.577Z,101414.81
2023-04-29T10:53:29.201Z,101420.13
2023-04-29T10:56:05.404Z,101416.13
2023-04-29T10:58:36.991Z,101428.72
2023-04-29T11:01:04.191Z,101426.28
2023-04-29T11:03:47.799Z,101420.34
2023-04-29T11:06:15.974Z,101426.28
2023-04-29T11:08:45.642Z,101426.66
2023-04-29T11:11:15.289Z,101428.88
2023-04-29T11:13:47.083Z,101414.59
2023-04-29T11:16:14.019Z,101427.78
2023-04-29T11:19:04.241Z,101419.81
2023-04-29T11:21:32.656Z,101430.38
2023-04-29T11:24:01.203Z,101441.66
2023-04-29T11:26:27.993Z,101429.03
2023-04-29T11:28:56.783Z,101433.19
2023-04-29T11:31:29.391Z,101425.94
2023-04-29T11:33:56.433Z,101427.13
2023-04-29T11:36:23.199Z,101429.72
2023-04-29T11:38:50.391Z,101435.06
2023-04-29T11:41:17.446Z,101426.28
2023-04-29T11:43:46.890Z,101432.56
2023-04-29T11:46:16.872Z,101439.00
2023-04-29T11:48:50.310Z,101435.69
2023-04-29T11:51:19.150Z,101430.22
2023-04-29T11:53:46.379Z,101439.84
2023-04-29T11:56:13.256Z,101434.75
2023-04-29T11:58:42.118Z,101439.19
2023-04-29T12:01:08.841Z,101445.97
2023-04-29T12:03:36.928Z,101446.16
2023-04-29T12:06:04.347Z,101447.44
2023-04-29T12:08:31.944Z,101450.72
2023-04-29T12:10:59.902Z,101456.72
2023-04-29T12:13:29.172Z,101459.59
2023-04-29T12:15:57.386Z,101458.84
2023-04-29T12:18:24.687Z,101455.19
2023-04-29T12:20:51.613Z,101458.53
2023-04-29T12:23:24.107Z,101456.28
2023-04-29T12:25:53.041Z,101461.16
2023-04-29T12:28:20.997Z,101462.00
2023-04-29T12:30:48.479Z,101463.16
2023-04-29T12:33:22.082Z,101464.50
2023-04-29T12:35:50.539Z,101464.13
2023-04-29T12:38:29.376Z,101468.31
2023-04-29T12:40:59.676Z,101460.09
2023-04-29T12:43:28.485Z,101463.16
2023-04-29T12:46:08.208Z,101471.59
2023-04-29T12:48:41.727Z,101463.34
2023-04-29T12:51:12.279Z,101460.53
2023-04-29T12:53:39.460Z,101464.75
2023-04-29T12:56:06.809Z,101469.03
2023-04-29T12:58:34.966Z,101468.31
2023-04-29T13:01:01.797Z,101460.94
2023-04-29T13:03:29.643Z,101459.28
2023-04-29T13:05:57.293Z,101471.88
2023-04-29T13:08:23.961Z,101473.53
2023-04-29T13:10:50.998Z,101463.34
2023-04-29T13:13:17.822Z,101471.44
2023-04-29T13:15:44.563Z,101471.09
2023-04-29T13:18:11.404Z,101466.72
2023-04-29T13:20:41.663Z,101456.94
2023-04-29T13:23:09.764Z,101468.72
2023-04-29T13:25:36.467Z,101466.00
2023-04-29T13:28:05.520Z,101466.88
2023-04-29T13:30:33.326Z,101455.69
2023-04-29T13:33:08.372Z,101458.63
2023-04-29T13:35:40.128Z,101457.06
2023-04-29T13:38:07.710Z,101462.06
2023-04-29T13:40:38.664Z,101464.19
2023-04-29T13:43:09.582Z,101464.63
2023-04-29T13:45:39.855Z,101461.66
2023-04-29T13:48:25.967Z,101467.63
2023-04-29T13:51:33.368Z,101463.50
2023-04-29T13:54:47.600Z,101451.34
2023-04-29T14:04:01.615Z,101455.81
2023-04-29T14:06:28.553Z,101456.63
2023-04-29T14:08:55.917Z,101460.09
2023-04-29T14:11:22.877Z,101458.75
2023-04-29T14:13:49.981Z,101458.91
2023-04-29T14:16:17.489Z,101451.34
2023-04-29T14:18:44.208Z,101470.78
2023-04-29T14:21:11.474Z,101456.28
2023-04-29T14:23:38.421Z,101478.72
2023-04-29T14:26:22.489Z,101477.66
2023-04-29T14:28:57.834Z,101493.28
2023-04-29T14:31:27.892Z,101488.97
2023-04-29T14:33:56.870Z,101491.47
2023-04-29T14:36:24.429Z,101482.66
2023-04-29T14:38:51.253Z,101485.81
2023-04-29T14:41:18.318Z,101489.22
2023-04-29T14:43:44.994Z,101485.41
2023-04-29T14:46:14.059Z,101491.63
2023-04-29T14:48:41.484Z,101493.25
2023-04-29T14:51:08.743Z,101490.34
2023-04-29T14:53:36.984Z,101494.91
2023-04-29T14:56:03.959Z,101502.44
2023-04-29T14:58:30.959Z,101498.28
2023-04-29T15:00:58.704Z,101496.28
2023-04-29T15:03:27.870Z,101490.28
2023-04-29T15:05:55.152Z,101492.72
2023-04-29T15:08:21.927Z,101501.69
2023-04-29T15:10:49.146Z,101496.00
2023-04-29T15:13:16.913Z,101492.75
2023-04-29T15:15:43.721Z,101494.59
2023-04-29T15:18:10.472Z,101492.50
2023-04-29T15:20:37.791Z,101494.47
2023-04-29T15:23:05.714Z,101499.16
2023-04-29T15:25:36.744Z,101496.28
2023-04-29T15:28:04.018Z,101484.22
2023-04-29T15:30:30.802Z,101510.41
2023-04-29T15:32:57.994Z,101502.97
2023-04-29T15:35:24.726Z,101508.56
2023-04-29T15:37:51.449Z,101503.44
2023-04-29T15:40:18.168Z,101516.72
2023-04-29T15:42:44.809Z,101503.38
2023-04-29T15:45:11.968Z,101514.75
2023-04-29T15:47:39.798Z,101513.28
2023-04-29T15:50:07.481Z,101514.56
2023-04-29T15:52:35.410Z,101517.09
2023-04-29T15:55:02.065Z,101514.22
2023-04-29T15:57:29.656Z,101517.88
2023-04-29T15:59:57.090Z,101519.81
2023-04-29T16:02:24.122Z,101520.34
2023-04-29T16:04:50.965Z,101518.00
2023-04-29T16:07:18.639Z,101535.31
2023-04-29T16:09:46.199Z,101515.19
2023-04-29T16:12:13.932Z,101520.06
2023-04-29T16:14:40.810Z,101530.47
2023-04-29T16:17:07.885Z,101530.25
2023-04-29T16:19:36.832Z,101519.66
2023-04-29T16:22:04.678Z,101532.22
2023-04-29T16:24:31.487Z,101530.69
2023-04-29T16:26:59.024Z,101525.53
2023-04-29T16:29:26.254Z,101531.81
2023-04-29T16:31:53.188Z,101536.47
2023-04-29T16:34:20.219Z,101534.00
2023-04-29T16:36:46.946Z,101511.50
2023-04-29T16:39:13.940Z,101527.66
2023-04-29T16:41:40.913Z,101535.84
2023-04-29T16:44:07.845Z,101534.78
2023-04-29T16:46:35.140Z,101538.38
2023-04-29T16:49:01.924Z,101521.47
2023-04-29T16:51:29.236Z,101537.41
2023-04-29T16:53:56.283Z,101539.75
2023-04-29T16:56:23.165Z,101542.16
2023-04-29T16:58:49.993Z,101550.38
2023-04-29T17:01:19.619Z,101533.41
2023-04-29T17:03:48.176Z,101544.53
2023-04-29T17:06:16.070Z,101549.41
2023-04-29T17:08:44.309Z,101551.72
2023-04-29T17:11:11.112Z,101553.44
2023-04-29T17:13:37.832Z,101546.09
2023-04-29T17:16:04.945Z,101556.16
2023-04-29T17:18:31.735Z,101562.44
2023-04-29T17:20:59.376Z,101573.34
2023-04-29T17:23:26.036Z,101562.44
2023-04-29T17:25:54.703Z,101564.09
2023-04-29T17:28:21.355Z,101560.09
2023-04-29T17:30:47.953Z,101571.16
2023-04-29T17:33:14.618Z,101573.66
2023-04-29T17:35:41.294Z,101580.16
2023-04-29T17:38:08.501Z,101579.50
2023-04-29T17:40:35.801Z,101591.16
2023-04-29T17:43:05.423Z,101582.97
2023-04-29T17:45:32.109Z,101584.81
2023-04-29T17:47:58.828Z,101592.03
2023-04-29T17:50:25.749Z,101596.75
2023-04-29T17:52:52.350Z,101568.91
2023-04-29T17:55:19.118Z,101595.03
2023-04-29T17:57:45.817Z,101610.16
2023-04-29T18:00:13.082Z,101603.56
2023-04-29T18:02:39.765Z,101596.69
2023-04-29T18:05:06.762Z,101606.97
2023-04-29T18:07:33.793Z,101616.03
2023-04-29T18:10:00.571Z,101617.56
2023-04-29T18:12:30.322Z,101617.22
2023-04-29T18:15:01.777Z,101630.06
2023-04-29T18:17:28.378Z,101620.84
2023-04-29T18:20:00.309Z,101630.31
2023-04-29T18:22:30.888Z,101623.06
2023-04-29T18:25:00.032Z,101641.16
2023-04-29T18:27:27.615Z,101644.50
2023-04-29T18:29:54.395Z,101654.59
2023-04-29T18:32:21.288Z,101650.78
2023-04-29T18:34:48.556Z,101656.66
2023-04-29T18:37:15.560Z,101661.78
2023-04-29T18:39:42.735Z,101653.09
2023-04-29T18:42:09.370Z,101659.75
2023-04-29T18:44:36.079Z,101672.78
2023-04-29T18:47:02.712Z,101672.53
2023-04-29T18:49:30.347Z,101674.63
2023-04-29T18:51:57.461Z,101670.97
2023-04-29T18:54:24.300Z,101681.94
2023-04-29T18:56:51.655Z,101679.41
2023-04-29T18:59:21.148Z,101681.09
2023-04-29T19:01:49.204Z,101701.38
2023-04-29T19:04:16.566Z,101704.47
2023-04-29T19:06:43.544Z,101708.72
2023-04-29T19:09:14.408Z,101701.50
2023-04-29T19:11:42.271Z,101708.91
2023-04-29T19:14:08.905Z,101714.19
2023-04-29T19:16:37.291Z,101714.91
2023-04-29T19:19:04.708Z,101716.81
2023-04-29T19:21:33.340Z,101707.19
2023-04-29T19:24:00.620Z,101719.50
2023-04-29T19:26:31.050Z,101724.59
2023-04-29T19:28:59.807Z,101725.78
2023-04-29T19:31:27.381Z,101726.47
2023-04-29T19:33:54.200Z,101733.91
2023-04-29T19:36:21.623Z,101735.78
2023-04-29T19:38:49.220Z,101729.91
2023-04-29T19:41:16.002Z,101715.56
2023-04-29T19:43:42.811Z,101735.63
2023-04-29T19:46:12.534Z,101740.56
2023-04-29T19:48:39.353Z,101745.63
2023-04-29T19:51:07.120Z,101744.78
2023-04-29T19:53:34.171Z,101751.72
2023-04-29T19:56:00.920Z,101747.34
2023-04-29T19:58:27.851Z,101759.47
2023-04-29T20:00:54.512Z,101740.59
2023-04-29T20:03:21.738Z,101760.84
2023-04-29T20:05:48.400Z,101756.28
2023-04-29T20:08:14.954Z,101759.66
2023-04-29T20:10:41.744Z,101757.13
2023-04-29T20:13:08.468Z,101762.88
2023-04-29T20:15:35.278Z,101756.13
2023-04-29T20:18:02.246Z,101769.28
2023-04-29T20:20:28.899Z,101762.69
2023-04-29T20:22:58.145Z,101779.88
2023-04-29T20:25:26.066Z,101783.69
2023-04-29T20:27:53.819Z,101787.00
2023-04-29T20:30:20.808Z,101787.19
2023-04-29T20:32:47.531Z,101782.50
2023-04-29T20:35:14.795Z,101791.94
2023-04-29T20:37:41.383Z,101791.09
2023-04-29T20:40:09.871Z,101787.41
2023-04-29T20:42:36.567Z,101796.81
2023-04-29T20:45:03.907Z,101802.22
2023-04-29T20:47:30.650Z,101788.56
2023-04-29T20:49:57.446Z,101777.94
2023-04-29T20:52:24.304Z,101793.47
2023-04-29T20:54:52.684Z,101790.09
2023-04-29T20:57:19.462Z,101801.19
2023-04-29T20:59:46.291Z,101807.59
2023-04-29T21:02:13.271Z,101814.50
2023-04-29T21:04:40.044Z,101821.22
2023-04-29T21:07:07.672Z,101817.66
2023-04-29T21:09:35.849Z,101814.63
2023-04-29T21:12:06.163Z,101832.16
2023-04-29T21:14:33.406Z,101826.88
2023-04-29T21:17:00.026Z,101836.81
2023-04-29T21:19:29.691Z,101833.13
2023-04-29T21:21:59.451Z,101830.22
2023-04-29T21:24:27.935Z,101837.59
2023-04-29T21:26:54.429Z,101841.09
2023-04-29T21:29:21.155Z,101842.22
2023-04-29T21:31:48.033Z,101854.63
2023-04-29T21:34:14.919Z,101848.94
2023-04-29T21:36:41.550Z,101847.09
2023-04-29T21:39:09.201Z,101858.88
2023-04-29T21:41:39.005Z,101850.09
2023-04-29T21:44:07.507Z,101857.16
2023-04-29T21:46:34.431Z,101852.28
2023-04-29T21:49:01.319Z,101857.88
2023-04-29T21:51:29.456Z,101850.16
2023-04-29T21:53:56.198Z,101859.72
2023-04-29T21:56:24.599Z,101853.13
2023-04-29T21:58:51.306Z,101850.72
2023-04-29T22:01:39.466Z,101860.13
2023-04-29T22:04:06.397Z,101851.38
2023-04-29T22:06:34.141Z,101866.13
2023-04-29T22:09:01.405Z,101865.91
2023-04-29T22:11:28.154Z,101856.59
2023-04-29T22:13:54.761Z,101871.94
2023-04-29T22:16:23.553Z,101879.53
2023-04-29T22:18:50.553Z,101877.75
2023-04-29T22:21:17.548Z,101892.75
2023-04-29T22:23:44.212Z,101889.06
2023-04-29T22:26:10.877Z,101897.34
2023-04-29T22:28:37.637Z,101899.81
2023-04-29T22:31:05.734Z,101900.44
2023-04-29T22:33:32.361Z,101892.63
2023-04-29T22:35:59.042Z,101886.59
2023-04-29T22:38:26.116Z,101896.75
2023-04-29T22:40:53.090Z,101904.19
2023-04-29T22:43:19.815Z,101910.75
2023-04-29T22:46:00.060Z,101907.75
2023-04-29T22:48:29.396Z,101914.03
2023-04-29T22:50:59.489Z,101906.19
2023-04-29T22:53:29.782Z,101906.81
2023-04-29T22:55:58.450Z,101922.84
2023-04-29T22:58:26.960Z,101932.38
2023-04-29T23:00:57.182Z,101913.56
2023-04-29T23:03:24.219Z,101915.69
2023-04-29T23:05:51.035Z,101933.53
2023-04-29T23:08:17.750Z,101922.03
2023-04-29T23:10:50.786Z,101924.34
2023-04-29T23:13:17.658Z,101920.19
2023-04-29T23:15:45.383Z,101915.47
2023-04-29T23:18:12.286Z,101916.13
2023-04-29T23:20:38.977Z,101923.16
2023-04-29T23:23:06.023Z,101914.59
2023-04-29T23:25:32.657Z,101925.91
2023-04-29T23:27:59.295Z,101913.91
2023-04-29T23:30:28.589Z,101928.16
2023-04-29T23:32:55.305Z,101928.22
2023-04-29T23:35:22.149Z,101930.59
2023-04-29T23:37:49.023Z,101936.16
2023-04-29T23:40:16.141Z,101940.13
2023-04-29T23:42:42.789Z,101938.78
2023-04-29T23:45:09.770Z,101934.25
2023-04-29T23:47:36.412Z,101939.16
2023-04-29T23:50:04.076Z,101942.84
2023-04-29T23:52:30.747Z,101935.09
2023-04-29T23:54:57.463Z,101918.94
2023-04-29T23:57:24.143Z,101941.06
2023-04-29T23:59:50.777Z,101936.16
